createdAt,value
2023-05-22T00:02:12.067Z,6.65
2023-05-22T00:04:40.334Z,7.43
2023-05-22T00:07:08.552Z,7.38
2023-05-22T00:09:36.726Z,7.63
2023-05-22T00:12:05.144Z,7.07
2023-05-22T00:14:33.171Z,6.60
2023-05-22T00:17:01.346Z,7.00
2023-05-22T00:19:31.090Z,7.00
2023-05-22T00:21:59.493Z,6.85
2023-05-22T00:24:27.574Z,6.47
2023-05-22T00:26:55.869Z,6.63
2023-05-22T00:29:23.944Z,7.03
2023-05-22T00:31:52.124Z,6.68
2023-05-22T00:34:20.639Z,7.30
2023-05-22T00:36:50.076Z,6.78
2023-05-22T00:39:18.298Z,6.35
2023-05-22T00:41:46.493Z,6.43
2023-05-22T00:44:14.758Z,6.30
2023-05-22T00:46:43.289Z,6.70
2023-05-22T00:49:11.460Z,7.35
2023-05-22T00:51:39.713Z,7.07
2023-05-22T00:54:10.572Z,7.10
2023-05-22T00:56:38.841Z,6.60
2023-05-22T00:59:07.002Z,7.07
2023-05-22T01:01:37.849Z,6.75
2023-05-22T01:04:08.305Z,6.65
2023-05-22T01:06:36.479Z,6.95
2023-05-22T01:09:05.162Z,6.50
2023-05-22T01:11:44.370Z,6.35
2023-05-22T01:14:22.307Z,6.60
2023-05-22T01:16:59.846Z,6.28
2023-05-22T01:20:01.452Z,7.75
2023-05-22T01:22:47.675Z,6.25
2023-05-22T01:25:33.795Z,6.25
2023-05-22T01:28:21.706Z,5.97
2023-05-22T01:31:01.231Z,5.70
2023-05-22T01:33:37.405Z,6.67
2023-05-22T01:36:10.805Z,6.88
2023-05-22T01:38:39.485Z,6.18
2023-05-22T01:41:07.737Z,6.45
2023-05-22T01:43:36.444Z,6.50
2023-05-22T01:46:06.545Z,5.93
2023-05-22T01:48:34.836Z,6.35
2023-05-22T01:51:08.925Z,6.80
2023-05-22T01:53:45.277Z,7.13
2023-05-22T01:56:18.019Z,6.75
2023-05-22T01:58:52.655Z,7.20
2023-05-22T02:01:27.659Z,7.88
2023-05-22T02:03:58.260Z,7.00
2023-05-22T02:06:30.022Z,7.00
2023-05-22T02:08:58.834Z,6.70
2023-05-22T02:11:29.466Z,7.03
2023-05-22T02:13:58.687Z,7.30
2023-05-22T02:16:28.919Z,6.90
2023-05-22T02:19:06.078Z,7.13
2023-05-22T02:21:35.462Z,7.35
2023-05-22T02:24:04.944Z,7.20
2023-05-22T02:26:33.288Z,7.07
2023-05-22T02:29:01.426Z,7.15
2023-05-22T02:31:31.290Z,7.45
2023-05-22T02:33:59.468Z,7.70
2023-05-22T02:36:27.557Z,7.53
2023-05-22T02:38:56.566Z,7.40
2023-05-22T02:41:24.646Z,7.35
2023-05-22T02:43:52.800Z,7.55
2023-05-22T02:46:21.039Z,6.70
2023-05-22T02:48:50.722Z,7.00
2023-05-22T02:51:18.856Z,6.53
2023-05-22T02:53:47.311Z,7.78
2023-05-22T02:56:16.458Z,7.05
2023-05-22T02:58:44.588Z,7.25
2023-05-22T03:01:13.225Z,9.13
2023-05-22T03:03:41.630Z,6.82
2023-05-22T03:06:11.178Z,6.50
2023-05-22T03:08:43.582Z,6.30
2023-05-22T03:11:11.936Z,6.80
2023-05-22T03:13:40.871Z,6.55
2023-05-22T03:16:09.217Z,7.32
2023-05-22T03:18:37.558Z,6.50
2023-05-22T03:21:06.694Z,7.70
2023-05-22T03:23:36.243Z,7.28
2023-05-22T03:26:04.553Z,7.30
2023-05-22T03:28:32.781Z,7.30
2023-05-22T03:31:01.272Z,7.13
2023-05-22T03:33:29.544Z,6.95
2023-05-22T03:35:57.676Z,6.75
2023-05-22T03:38:26.408Z,6.65
2023-05-22T03:40:55.949Z,7.22
2023-05-22T03:43:24.073Z,7.07
2023-05-22T03:45:52.285Z,6.88
2023-05-22T03:48:20.611Z,6.93
2023-05-22T03:50:48.912Z,7.38
2023-05-22T03:53:17.223Z,6.25
2023-05-22T03:55:45.393Z,6.35
2023-05-22T03:58:15.132Z,6.88
2023-05-22T04:00:43.862Z,7.10
2023-05-22T04:03:13.316Z,7.38
2023-05-22T04:05:41.552Z,6.97
2023-05-22T04:08:09.566Z,7.22
2023-05-22T04:10:39.090Z,7.35
2023-05-22T04:13:07.582Z,7.00
2023-05-22T04:15:37.032Z,7.35
2023-05-22T04:18:05.365Z,6.70
2023-05-22T04:20:33.512Z,6.80
2023-05-22T04:23:02.525Z,7.03
2023-05-22T04:25:31.743Z,6.88
2023-05-22T04:28:03.220Z,6.85
2023-05-22T04:30:34.231Z,7.90
2023-05-22T04:33:05.736Z,6.88
2023-05-22T04:35:34.365Z,7.38
2023-05-22T04:38:03.820Z,7.03
2023-05-22T04:40:33.791Z,7.35
2023-05-22T04:43:03.687Z,6.60
2023-05-22T04:45:35.652Z,6.97
2023-05-22T04:48:05.864Z,6.63
2023-05-22T04:50:34.464Z,7.15
2023-05-22T04:53:04.503Z,6.75
2023-05-22T04:55:34.213Z,7.20
2023-05-22T04:58:02.982Z,7.05
2023-05-22T05:00:31.338Z,7.32
2023-05-22T05:03:00.536Z,6.75
2023-05-22T05:05:30.620Z,7.00
2023-05-22T05:07:59.375Z,7.60
2023-05-22T05:10:28.029Z,6.90
2023-05-22T05:12:56.846Z,7.50
2023-05-22T05:15:25.272Z,8.73
2023-05-22T05:17:54.218Z,7.55
2023-05-22T05:20:23.332Z,7.90
2023-05-22T05:22:53.544Z,8.75
2023-05-22T05:25:22.041Z,8.00
2023-05-22T05:27:50.874Z,8.32
2023-05-22T05:30:20.648Z,8.30
2023-05-22T05:32:49.138Z,8.57
2023-05-22T05:35:17.466Z,8.50
2023-05-22T05:37:45.899Z,8.98
2023-05-22T05:40:16.346Z,7.80
2023-05-22T05:42:46.516Z,8.32
2023-05-22T05:45:16.654Z,7.85
2023-05-22T05:47:46.074Z,8.68
2023-05-22T05:50:15.764Z,9.15
2023-05-22T05:52:44.078Z,10.05
2023-05-22T05:55:12.296Z,10.38
2023-05-22T05:57:42.204Z,9.02
2023-05-22T06:00:12.166Z,9.27
2023-05-22T06:02:40.678Z,9.80
2023-05-22T06:05:10.108Z,9.65
2023-05-22T06:07:39.864Z,10.60
2023-05-22T06:10:09.554Z,9.90
2023-05-22T06:12:37.861Z,9.90
2023-05-22T06:15:08.726Z,9.98
2023-05-22T06:17:37.355Z,9.65
2023-05-22T06:20:07.175Z,9.15
2023-05-22T06:22:37.118Z,9.45
2023-05-22T06:25:06.531Z,9.60
2023-05-22T06:27:34.929Z,9.45
2023-05-22T06:30:04.724Z,9.25
2023-05-22T06:32:35.346Z,8.93
2023-05-22T06:35:04.220Z,9.60
2023-05-22T06:37:35.679Z,9.40
2023-05-22T06:40:04.462Z,8.13
2023-05-22T06:42:32.828Z,7.88
2023-05-22T06:45:01.280Z,9.40
2023-05-22T06:47:29.685Z,8.43
2023-05-22T06:49:59.861Z,7.95
2023-05-22T06:52:28.108Z,7.88
2023-05-22T06:55:04.330Z,7.28
2023-05-22T06:57:33.417Z,5.15
2023-05-22T07:00:02.239Z,4.75
2023-05-22T07:02:30.756Z,4.78
2023-05-22T07:05:00.601Z,3.90
2023-05-22T07:07:28.759Z,4.20
2023-05-22T07:09:56.991Z,4.22
2023-05-22T07:12:26.319Z,4.25
2023-05-22T07:14:54.834Z,4.55
2023-05-22T07:17:23.238Z,4.50
2023-05-22T07:19:51.591Z,4.88
2023-05-22T07:22:21.652Z,4.55
2023-05-22T07:24:50.774Z,5.88
2023-05-22T07:27:18.886Z,6.18
2023-05-22T07:29:47.102Z,5.80
2023-05-22T07:32:15.520Z,5.90
2023-05-22T07:34:44.463Z,5.15
2023-05-22T07:37:14.290Z,5.30
2023-05-22T07:39:43.972Z,4.78
2023-05-22T07:42:14.796Z,4.15
2023-05-22T07:44:43.199Z,4.53
2023-05-22T07:47:11.596Z,5.78
2023-05-22T07:49:40.000Z,4.15
2023-05-22T07:52:08.668Z,4.88
2023-05-22T07:54:37.107Z,3.97
2023-05-22T07:57:08.282Z,4.30
2023-05-22T07:59:37.831Z,3.78
2023-05-22T08:02:06.387Z,3.95
2023-05-22T08:04:35.650Z,4.50
2023-05-22T08:07:04.324Z,4.43
2023-05-22T08:09:32.943Z,4.30
2023-05-22T08:12:01.757Z,3.60
2023-05-22T08:14:31.822Z,3.92
2023-05-22T08:17:00.555Z,3.55
2023-05-22T08:19:29.212Z,3.83
2023-05-22T08:21:58.608Z,3.22
2023-05-22T08:24:28.898Z,3.67
2023-05-22T08:26:58.276Z,4.00
2023-05-22T08:29:26.782Z,3.40
2023-05-22T08:31:58.406Z,3.92
2023-05-22T08:34:28.499Z,4.13
2023-05-22T08:36:56.794Z,3.72
2023-05-22T08:39:28.480Z,4.22
2023-05-22T08:41:57.514Z,3.97
2023-05-22T08:44:26.293Z,3.63
2023-05-22T08:46:59.954Z,4.00
2023-05-22T08:49:28.753Z,4.35
2023-05-22T08:52:07.074Z,3.90
2023-05-22T08:54:41.159Z,3.83
2023-05-22T08:57:10.240Z,3.78
2023-05-22T08:59:40.360Z,4.00
2023-05-22T09:02:11.573Z,4.25
2023-05-22T09:04:42.137Z,4.20
2023-05-22T09:07:10.927Z,4.10
2023-05-22T09:09:40.052Z,4.30
2023-05-22T09:12:10.531Z,4.32
2023-05-22T09:14:42.494Z,3.88
2023-05-22T09:17:16.702Z,3.67
2023-05-22T09:19:47.502Z,3.92
2023-05-22T09:22:16.848Z,4.28
2023-05-22T09:24:47.293Z,3.97
2023-05-22T09:27:15.583Z,4.18
2023-05-22T09:29:50.753Z,4.15
2023-05-22T09:32:21.116Z,4.03
2023-05-22T09:34:49.931Z,4.25
2023-05-22T09:37:19.258Z,4.30
2023-05-22T09:39:51.605Z,3.53
2023-05-22T09:42:19.943Z,4.72
2023-05-22T09:44:50.315Z,3.55
2023-05-22T09:47:20.020Z,3.67
2023-05-22T09:49:48.913Z,3.60
2023-05-22T09:52:19.359Z,3.60
2023-05-22T09:54:55.051Z,3.70
2023-05-22T09:57:25.056Z,3.15
2023-05-22T09:59:58.422Z,3.63
2023-05-22T10:02:29.687Z,3.22
2023-05-22T10:04:59.241Z,3.47
2023-05-22T10:07:34.326Z,3.33
2023-05-22T10:10:06.598Z,3.35
2023-05-22T10:12:38.673Z,4.25
2023-05-22T10:15:09.713Z,4.55
2023-05-22T10:17:41.575Z,3.58
2023-05-22T10:20:11.233Z,4.05
2023-05-22T10:22:40.844Z,3.33
2023-05-22T10:25:11.067Z,3.45
2023-05-22T10:27:40.733Z,3.90
2023-05-22T10:30:20.368Z,3.58
2023-05-22T10:32:57.631Z,3.30
2023-05-22T10:35:33.807Z,3.40
2023-05-22T10:38:15.775Z,3.30
2023-05-22T10:40:48.487Z,3.47
2023-05-22T10:43:17.133Z,3.00
2023-05-22T10:45:48.455Z,3.22
2023-05-22T10:48:23.043Z,3.80
2023-05-22T10:50:55.078Z,3.30
2023-05-22T10:53:28.095Z,4.10
2023-05-22T10:55:57.539Z,4.03
2023-05-22T10:58:29.825Z,3.63
2023-05-22T11:01:11.139Z,3.20
2023-05-22T11:03:58.497Z,3.60
2023-05-22T11:06:38.798Z,4.32
2023-05-22T11:09:21.984Z,3.53
2023-05-22T11:12:20.989Z,3.10
2023-05-22T11:14:57.521Z,3.80
2023-05-22T11:17:29.206Z,3.00
2023-05-22T11:20:05.577Z,3.33
2023-05-22T11:22:38.664Z,3.13
2023-05-22T11:25:12.353Z,3.08
2023-05-22T11:27:42.768Z,3.13
2023-05-22T11:30:12.767Z,3.13
2023-05-22T11:32:44.672Z,3.35
2023-05-22T11:35:17.679Z,3.03
2023-05-22T11:37:46.757Z,2.88
2023-05-22T11:40:17.151Z,2.60
2023-05-22T11:42:45.834Z,3.70
2023-05-22T11:45:16.221Z,3.35
2023-05-22T11:47:45.206Z,4.15
2023-05-22T11:50:17.990Z,4.45
2023-05-22T11:52:56.449Z,4.13
2023-05-22T11:55:25.601Z,4.38
2023-05-22T11:57:57.539Z,4.65
2023-05-22T12:00:26.727Z,4.40
2023-05-22T12:02:56.307Z,3.65
2023-05-22T12:05:24.711Z,4.20
2023-05-22T12:07:54.874Z,3.35
2023-05-22T12:10:23.797Z,3.50
2023-05-22T12:12:52.782Z,2.92
2023-05-22T12:15:21.523Z,3.20
2023-05-22T12:17:49.993Z,3.42
2023-05-22T12:20:20.798Z,3.80
2023-05-22T12:22:51.678Z,4.30
2023-05-22T12:25:24.587Z,4.50
2023-05-22T12:27:52.962Z,4.20
2023-05-22T12:30:23.853Z,4.90
2023-05-22T12:32:53.310Z,4.57
2023-05-22T12:35:21.767Z,4.47
2023-05-22T12:37:50.602Z,3.95
2023-05-22T12:40:20.621Z,4.53
2023-05-22T12:42:52.420Z,4.80
2023-05-22T12:45:21.214Z,4.35
2023-05-22T12:47:52.572Z,4.15
2023-05-22T12:50:38.991Z,4.53
2023-05-22T12:53:07.437Z,4.03
2023-05-22T12:55:38.081Z,5.80
2023-05-22T12:58:06.399Z,3.83
2023-05-22T13:00:35.415Z,4.03
2023-05-22T13:03:04.458Z,3.38
2023-05-22T13:05:33.152Z,4.05
2023-05-22T13:08:01.713Z,4.20
2023-05-22T13:10:30.740Z,4.65
2023-05-22T13:13:00.690Z,3.90
2023-05-22T13:15:36.722Z,3.38
2023-05-22T13:18:05.474Z,3.58
2023-05-22T13:20:36.159Z,3.80
2023-05-22T13:23:04.627Z,3.60
2023-05-22T13:25:33.198Z,4.00
2023-05-22T13:28:03.069Z,3.58
2023-05-22T13:30:32.307Z,3.55
2023-05-22T13:33:00.847Z,3.58
2023-05-22T13:35:29.221Z,4.68
2023-05-22T13:37:57.638Z,3.83
2023-05-22T13:40:28.590Z,3.90
2023-05-22T13:42:57.050Z,3.92
2023-05-22T13:45:27.890Z,3.55
2023-05-22T13:47:58.982Z,3.65
2023-05-22T13:50:30.800Z,3.40
2023-05-22T13:52:59.537Z,3.28
2023-05-22T13:55:31.118Z,3.20
2023-05-22T13:57:59.675Z,3.05
2023-05-22T14:00:29.602Z,3.53
2023-05-22T14:02:58.212Z,3.55
2023-05-22T14:05:32.303Z,3.20
2023-05-22T14:08:00.755Z,4.18
2023-05-22T14:10:29.361Z,4.07
2023-05-22T14:12:57.611Z,3.53
2023-05-22T14:15:26.866Z,3.33
2023-05-22T14:17:56.679Z,3.55
2023-05-22T14:20:25.330Z,4.03
2023-05-22T14:22:58.252Z,3.33
2023-05-22T14:25:29.417Z,2.90
2023-05-22T14:27:58.771Z,3.60
2023-05-22T14:30:27.355Z,2.88
2023-05-22T14:32:57.120Z,2.85
2023-05-22T14:35:25.683Z,2.88
2023-05-22T14:37:57.629Z,2.90
2023-05-22T14:40:25.875Z,2.33
2023-05-22T14:42:54.605Z,2.15
2023-05-22T14:45:22.916Z,2.65
2023-05-22T14:47:51.229Z,2.70
2023-05-22T14:50:21.907Z,3.08
2023-05-22T14:52:50.826Z,3.58
2023-05-22T14:55:19.562Z,3.67
2023-05-22T14:57:47.714Z,3.47
2023-05-22T15:00:16.585Z,3.33
2023-05-22T15:02:44.825Z,3.45
2023-05-22T15:05:13.221Z,3.33
2023-05-22T15:07:45.525Z,3.13
2023-05-22T15:10:14.913Z,3.70
2023-05-22T15:12:42.997Z,3.63
2023-05-22T15:15:12.481Z,3.88
2023-05-22T15:17:42.582Z,4.07
2023-05-22T15:20:12.150Z,3.80
2023-05-22T15:22:40.645Z,3.90
2023-05-22T15:25:15.084Z,3.50
2023-05-22T15:27:43.626Z,3.72
2023-05-22T15:30:17.028Z,3.40
2023-05-22T15:32:45.440Z,3.45
2023-05-22T15:35:15.052Z,3.50
2023-05-22T15:37:43.341Z,3.15
2023-05-22T15:40:17.413Z,4.30
2023-05-22T15:42:45.645Z,3.58
2023-05-22T15:45:14.143Z,4.25
2023-05-22T15:47:42.805Z,4.40
2023-05-22T15:50:11.576Z,4.05
2023-05-22T15:52:39.780Z,4.25
2023-05-22T15:55:08.779Z,4.10
2023-05-22T15:57:38.732Z,4.53
2023-05-22T16:00:08.665Z,4.32
2023-05-22T16:02:37.141Z,4.50
2023-05-22T16:05:06.281Z,5.05
2023-05-22T16:07:34.746Z,4.90
2023-05-22T16:10:04.119Z,4.55
2023-05-22T16:12:32.789Z,4.35
2023-05-22T16:15:04.518Z,4.15
2023-05-22T16:17:34.988Z,4.68
2023-05-22T16:20:05.154Z,4.60
2023-05-22T16:22:47.368Z,5.20
2023-05-22T16:25:19.268Z,4.00
2023-05-22T16:27:47.821Z,3.92
2023-05-22T16:30:18.247Z,4.00
2023-05-22T16:32:47.210Z,3.03
2023-05-22T16:35:16.031Z,3.30
2023-05-22T16:37:44.283Z,2.72
2023-05-22T16:40:14.802Z,2.97
2023-05-22T16:42:43.117Z,3.20
2023-05-22T16:45:11.479Z,2.45
2023-05-22T16:47:41.107Z,2.90
2023-05-22T16:50:10.285Z,2.72
2023-05-22T16:52:38.389Z,3.10
2023-05-22T16:55:07.483Z,2.30
2023-05-22T16:57:35.663Z,2.50
2023-05-22T17:00:05.166Z,2.00
2023-05-22T17:02:33.538Z,2.13
2023-05-22T17:05:03.278Z,1.98
2023-05-22T17:07:31.826Z,2.00
2023-05-22T17:10:00.309Z,2.42
2023-05-22T17:12:28.928Z,2.30
2023-05-22T17:14:57.097Z,2.40
2023-05-22T17:17:25.258Z,2.03
2023-05-22T17:19:54.400Z,2.00
2023-05-22T17:22:24.040Z,2.50
2023-05-22T17:24:52.783Z,2.50
2023-05-22T17:27:34.343Z,1.92
2023-05-22T17:30:03.617Z,2.60
2023-05-22T17:32:31.817Z,2.60
2023-05-22T17:35:00.170Z,2.65
2023-05-22T17:37:29.674Z,2.75
2023-05-22T17:39:57.903Z,3.15
2023-05-22T17:42:25.950Z,3.58
2023-05-22T17:44:54.002Z,3.22
2023-05-22T17:47:22.406Z,2.63
2023-05-22T17:49:50.689Z,2.90
2023-05-22T17:52:18.868Z,3.72
2023-05-22T17:54:50.368Z,3.50
2023-05-22T17:57:18.592Z,3.10
2023-05-22T17:59:46.806Z,4.10
2023-05-22T18:02:15.050Z,4.25
2023-05-22T18:04:43.085Z,3.95
2023-05-22T18:07:11.204Z,3.67
2023-05-22T18:09:39.305Z,3.88
2023-05-22T18:12:15.156Z,3.20
2023-05-22T18:14:52.595Z,3.47
2023-05-22T18:17:21.027Z,3.53
2023-05-22T18:19:49.278Z,2.75
2023-05-22T18:22:17.406Z,3.15
2023-05-22T18:24:45.949Z,3.00
2023-05-22T18:27:15.414Z,3.03
2023-05-22T18:29:43.463Z,3.50
2023-05-22T18:32:13.657Z,3.28
2023-05-22T18:34:42.165Z,3.15
2023-05-22T18:37:10.995Z,3.13
2023-05-22T18:39:39.083Z,3.78
2023-05-22T18:42:07.718Z,3.08
2023-05-22T18:44:37.739Z,3.30
2023-05-22T18:47:06.325Z,2.88
2023-05-22T18:49:34.726Z,3.10
2023-05-22T18:52:02.982Z,3.40
2023-05-22T18:54:31.067Z,3.17
2023-05-22T18:56:59.254Z,3.30
2023-05-22T18:59:27.518Z,3.58
2023-05-22T19:01:57.041Z,3.58
2023-05-22T19:04:26.011Z,3.78
2023-05-22T19:06:54.406Z,3.92
2023-05-22T19:09:22.689Z,2.97
2023-05-22T19:11:51.307Z,3.45
2023-05-22T19:14:19.504Z,3.13
2023-05-22T19:16:47.943Z,3.17
2023-05-22T19:19:17.890Z,3.65
2023-05-22T19:21:46.168Z,3.22
2023-05-22T19:24:14.782Z,3.33
2023-05-22T19:26:58.358Z,3.45
2023-05-22T19:29:26.564Z,3.05
2023-05-22T19:31:55.233Z,3.40
2023-05-22T19:34:24.948Z,3.47
2023-05-22T19:36:57.614Z,3.33
2023-05-22T19:39:26.263Z,3.35
2023-05-22T19:41:54.921Z,3.45
2023-05-22T19:44:23.554Z,3.40
2023-05-22T19:46:51.941Z,3.42
2023-05-22T19:49:21.073Z,3.30
2023-05-22T19:54:37.215Z,3.22
2023-05-22T19:57:05.727Z,3.33
2023-05-22T19:59:36.540Z,3.20
2023-05-22T20:02:06.491Z,2.83
2023-05-22T20:04:34.899Z,3.65
2023-05-22T20:07:05.814Z,3.63
2023-05-22T20:09:34.101Z,3.40
2023-05-22T20:12:02.282Z,3.38
2023-05-22T20:14:30.707Z,3.10
2023-05-22T20:16:59.646Z,4.43
2023-05-22T20:19:32.724Z,4.53
2023-05-22T20:22:02.188Z,3.73
2023-05-22T20:24:32.261Z,3.60
2023-05-22T20:27:01.224Z,3.70
2023-05-22T20:29:29.547Z,3.78
2023-05-22T20:31:57.960Z,4.27
2023-05-22T20:34:28.597Z,4.47
2023-05-22T20:36:58.561Z,4.28
2023-05-22T20:39:30.554Z,4.43
2023-05-22T20:42:03.034Z,4.53
2023-05-22T20:44:31.871Z,4.38
2023-05-22T20:47:00.945Z,5.00
2023-05-22T20:49:30.082Z,4.88
2023-05-22T20:52:00.086Z,5.47
2023-05-22T20:54:28.900Z,5.35
2023-05-22T20:56:57.480Z,5.68
2023-05-22T20:59:28.676Z,5.18
2023-05-22T21:01:58.017Z,5.93
2023-05-22T21:04:27.070Z,5.50
2023-05-22T21:06:55.281Z,5.70
2023-05-22T21:09:23.470Z,5.07
2023-05-22T21:11:51.611Z,5.65
2023-05-22T21:14:19.746Z,5.72
2023-05-22T21:16:49.294Z,4.72
2023-05-22T21:19:17.510Z,4.85
2023-05-22T21:21:45.976Z,4.65
2023-05-22T21:24:14.365Z,4.25
2023-05-22T21:26:42.524Z,4.45
2023-05-22T21:29:10.718Z,3.95
2023-05-22T21:31:38.858Z,4.55
2023-05-22T21:34:09.829Z,3.97
2023-05-22T21:36:38.122Z,4.13
2023-05-22T21:39:06.469Z,3.95
2023-05-22T21:41:34.863Z,3.83
2023-05-22T21:44:08.828Z,4.25
2023-05-22T21:46:37.359Z,3.65
2023-05-22T21:49:06.278Z,4.18
2023-05-22T21:51:36.067Z,3.97
2023-05-22T21:54:04.510Z,4.30
2023-05-22T21:56:32.768Z,4.05
2023-05-22T21:59:00.993Z,3.92
2023-05-22T22:01:29.176Z,4.15
2023-05-22T22:03:57.370Z,3.70
2023-05-22T22:06:25.755Z,3.97
2023-05-22T22:08:56.032Z,3.80
2023-05-22T22:11:24.330Z,4.03
2023-05-22T22:13:52.807Z,4.07
2023-05-22T22:16:22.378Z,3.70
2023-05-22T22:18:51.248Z,3.63
2023-05-22T22:21:19.930Z,3.63
2023-05-22T22:23:48.295Z,3.72
2023-05-22T22:26:18.004Z,4.67
2023-05-22T22:28:46.376Z,4.05
2023-05-22T22:31:14.573Z,4.23
2023-05-22T22:33:42.929Z,4.43
2023-05-22T22:36:11.188Z,4.43
2023-05-22T22:38:39.451Z,4.90
2023-05-22T22:41:09.828Z,4.32
2023-05-22T22:43:39.512Z,4.90
2023-05-22T22:46:08.830Z,5.32
2023-05-22T22:48:37.183Z,4.93
2023-05-22T22:51:06.216Z,5.05
2023-05-22T22:53:34.525Z,4.80
2023-05-22T22:56:03.015Z,4.30
2023-05-22T22:58:31.547Z,5.50
2023-05-22T23:01:01.716Z,4.83
2023-05-22T23:03:29.902Z,5.28
2023-05-22T23:05:58.391Z,5.30
2023-05-22T23:08:27.232Z,5.03
2023-05-22T23:10:55.504Z,5.40
2023-05-22T23:13:23.963Z,4.90
2023-05-22T23:15:52.256Z,5.45
2023-05-22T23:18:22.411Z,5.30
2023-05-22T23:20:51.390Z,5.70
2023-05-22T23:23:20.205Z,5.57
2023-05-22T23:25:48.337Z,5.50
2023-05-22T23:28:16.971Z,5.63
2023-05-22T23:30:45.085Z,5.47
2023-05-22T23:33:14.194Z,5.10
2023-05-22T23:35:43.745Z,4.77
2023-05-22T23:38:11.885Z,5.10
2023-05-22T23:40:40.134Z,4.70
2023-05-22T23:43:08.332Z,4.70
2023-05-22T23:45:36.488Z,5.17
2023-05-22T23:48:05.545Z,4.70
2023-05-22T23:50:34.011Z,4.03
2023-05-22T23:53:04.085Z,4.30
2023-05-22T23:55:32.376Z,4.60
2023-05-22T23:58:00.683Z,4.30
